sensor_id;sensor_type;location;lat;lon;timestamp;pressure;altitude;pressure_sealevel;temperature;humidity
26563;BME280;14217;50.986;5.826;2023-05-01T00:03:56;101085.56;;;20.83;41.93
26563;BME280;14217;50.986;5.826;2023-05-01T00:08:59;101073.94;;;20.84;41.97
26563;BME280;14217;50.986;5.826;2023-05-01T00:14:01;101064.31;;;20.82;41.99
26563;BME280;14217;50.986;5.826;2023-05-01T00:19:03;101062.50;;;20.82;41.83
26563;BME280;14217;50.986;5.826;2023-05-01T00:24:05;101057.13;;;20.84;41.88
26563;BME280;14217;50.986;5.826;2023-05-01T00:29:07;101047.38;;;20.83;41.89
26563;BME280;14217;50.986;5.826;2023-05-01T00:34:10;101043.72;;;20.85;41.86
26563;BME280;14217;50.986;5.826;2023-05-01T00:39:12;101038.41;;;20.85;41.90
26563;BME280;14217;50.986;5.826;2023-05-01T00:44:14;101035.81;;;20.84;42.14
26563;BME280;14217;50.986;5.826;2023-05-01T00:49:17;101028.06;;;20.79;41.91
26563;BME280;14217;50.986;5.826;2023-05-01T00:54:19;101025.16;;;20.84;42.04
26563;BME280;14217;50.986;5.826;2023-05-01T00:59:22;101018.97;;;20.83;42.09
26563;BME280;14217;50.986;5.826;2023-05-01T01:04:24;101013.34;;;20.89;41.67
26563;BME280;14217;50.986;5.826;2023-05-01T01:20:46;100987.00;;;20.83;41.86
26563;BME280;14217;50.986;5.826;2023-05-01T01:31:28;100977.28;;;20.82;41.89
26563;BME280;14217;50.986;5.826;2023-05-01T01:36:39;100971.88;;;20.84;42.14
26563;BME280;14217;50.986;5.826;2023-05-01T01:41:43;100968.44;;;20.82;42.16
26563;BME280;14217;50.986;5.826;2023-05-01T01:46:47;100970.41;;;20.78;42.30
26563;BME280;14217;50.986;5.826;2023-05-01T01:51:52;100962.25;;;20.81;42.09
26563;BME280;14217;50.986;5.826;2023-05-01T01:56:58;100958.66;;;20.82;42.05
26563;BME280;14217;50.986;5.826;2023-05-01T02:02:03;100953.50;;;20.79;42.28
26563;BME280;14217;50.986;5.826;2023-05-01T02:07:07;100938.28;;;20.81;42.14
26563;BME280;14217;50.986;5.826;2023-05-01T02:12:11;100936.50;;;20.82;41.98
26563;BME280;14217;50.986;5.826;2023-05-01T02:17:13;100937.44;;;20.81;42.03
26563;BME280;14217;50.986;5.826;2023-05-01T02:22:17;100925.66;;;20.85;42.03
26563;BME280;14217;50.986;5.826;2023-05-01T02:27:27;100922.06;;;20.86;41.97
26563;BME280;14217;50.986;5.826;2023-05-01T02:32:31;100912.44;;;20.83;41.88
26563;BME280;14217;50.986;5.826;2023-05-01T02:37:33;100910.56;;;20.85;42.05
26563;BME280;14217;50.986;5.826;2023-05-01T02:42:37;100903.56;;;20.83;42.08
26563;BME280;14217;50.986;5.826;2023-05-01T02:47:41;100896.47;;;20.83;41.96
26563;BME280;14217;50.986;5.826;2023-05-01T02:52:45;100887.53;;;20.84;42.21
26563;BME280;14217;50.986;5.826;2023-05-01T02:57:49;100877.03;;;20.81;42.16
26563;BME280;14217;50.986;5.826;2023-05-01T03:02:51;100875.06;;;20.85;41.97
26563;BME280;14217;50.986;5.826;2023-05-01T03:07:54;100877.72;;;20.85;42.23
26563;BME280;14217;50.986;5.826;2023-05-01T03:12:56;100871.63;;;20.83;42.03
26563;BME280;14217;50.986;5.826;2023-05-01T03:17:58;100863.63;;;20.83;42.14
26563;BME280;14217;50.986;5.826;2023-05-01T03:23:00;100863.47;;;20.86;42.16
26563;BME280;14217;50.986;5.826;2023-05-01T03:28:03;100853.94;;;20.82;41.97
26563;BME280;14217;50.986;5.826;2023-05-01T03:33:05;100845.88;;;20.83;42.14
26563;BME280;14217;50.986;5.826;2023-05-01T03:38:07;100845.16;;;20.80;42.31
26563;BME280;14217;50.986;5.826;2023-05-01T03:43:09;100836.31;;;20.79;42.28
26563;BME280;14217;50.986;5.826;2023-05-01T03:48:11;100832.63;;;20.82;42.34
26563;BME280;14217;50.986;5.826;2023-05-01T03:53:14;100836.06;;;20.84;42.31
26563;BME280;14217;50.986;5.826;2023-05-01T03:58:17;100833.34;;;20.85;42.19
26563;BME280;14217;50.986;5.826;2023-05-01T04:03:19;100827.22;;;20.83;42.18
26563;BME280;14217;50.986;5.826;2023-05-01T04:08:21;100819.25;;;20.83;42.38
26563;BME280;14217;50.986;5.826;2023-05-01T04:13:24;100819.50;;;20.79;42.44
26563;BME280;14217;50.986;5.826;2023-05-01T04:18:26;100818.53;;;20.80;42.15
26563;BME280;14217;50.986;5.826;2023-05-01T04:23:28;100821.91;;;20.83;42.17
26563;BME280;14217;50.986;5.826;2023-05-01T04:28:30;100821.91;;;20.83;42.35
26563;BME280;14217;50.986;5.826;2023-05-01T04:33:32;100820.09;;;20.84;42.16
26563;BME280;14217;50.986;5.826;2023-05-01T04:38:34;100820.16;;;20.82;42.47
26563;BME280;14217;50.986;5.826;2023-05-01T04:43:38;100812.94;;;20.84;42.46
26563;BME280;14217;50.986;5.826;2023-05-01T04:48:40;100812.34;;;20.79;42.45
26563;BME280;14217;50.986;5.826;2023-05-01T04:53:42;100812.34;;;20.79;42.59
26563;BME280;14217;50.986;5.826;2023-05-01T04:58:45;100820.34;;;20.79;42.36
26563;BME280;14217;50.986;5.826;2023-05-01T05:03:47;100822.84;;;20.82;42.17
26563;BME280;14217;50.986;5.826;2023-05-01T05:08:51;100817.59;;;20.81;42.46
26563;BME280;14217;50.986;5.826;2023-05-01T05:13:53;100823.78;;;20.81;42.46
26563;BME280;14217;50.986;5.826;2023-05-01T05:18:55;100827.38;;;20.80;42.53
26563;BME280;14217;50.986;5.826;2023-05-01T05:23:59;100830.81;;;20.82;42.28
26563;BME280;14217;50.986;5.826;2023-05-01T05:29:01;100836.00;;;20.85;42.50
26563;BME280;14217;50.986;5.826;2023-05-01T05:34:03;100834.34;;;20.83;42.44
26563;BME280;14217;50.986;5.826;2023-05-01T05:39:05;100837.88;;;20.83;42.28
26563;BME280;14217;50.986;5.826;2023-05-01T05:44:07;100837.97;;;20.82;42.22
26563;BME280;14217;50.986;5.826;2023-05-01T05:49:09;100832.56;;;20.83;42.38
26563;BME280;14217;50.986;5.826;2023-05-01T05:54:11;100834.59;;;20.78;42.38
26563;BME280;14217;50.986;5.826;2023-05-01T05:59:13;100830.81;;;20.82;42.50
26563;BME280;14217;50.986;5.826;2023-05-01T06:04:17;100832.69;;;20.80;42.44
26563;BME280;14217;50.986;5.826;2023-05-01T06:09:19;100826.34;;;20.83;42.28
26563;BME280;14217;50.986;5.826;2023-05-01T06:14:22;100832.44;;;20.85;42.27
26563;BME280;14217;50.986;5.826;2023-05-01T06:19:24;100828.94;;;20.84;42.25
26563;BME280;14217;50.986;5.826;2023-05-01T06:24:26;100825.41;;;20.84;42.25
26563;BME280;14217;50.986;5.826;2023-05-01T06:29:28;100829.00;;;20.83;42.38
26563;BME280;14217;50.986;5.826;2023-05-01T06:34:30;100832.69;;;20.80;42.53
26563;BME280;14217;50.986;5.826;2023-05-01T06:39:32;100827.38;;;20.80;42.61
26563;BME280;14217;50.986;5.826;2023-05-01T06:44:34;100820.16;;;20.82;42.62
26563;BME280;14217;50.986;5.826;2023-05-01T06:49:36;100826.28;;;20.84;42.52
26563;BME280;14217;50.986;5.826;2023-05-01T06:54:38;100832.69;;;20.80;42.96
26563;BME280;14217;50.986;5.826;2023-05-01T06:59:41;100823.44;;;20.87;42.83
26563;BME280;14217;50.986;5.826;2023-05-01T07:04:42;100830.81;;;20.82;43.01
26563;BME280;14217;50.986;5.826;2023-05-01T07:09:45;100830.81;;;20.82;42.74
26563;BME280;14217;50.986;5.826;2023-05-01T07:14:48;100824.38;;;20.86;42.94
26563;BME280;14217;50.986;5.826;2023-05-01T07:19:50;100831.34;;;20.89;42.68
26563;BME280;14217;50.986;5.826;2023-05-01T07:24:52;100829.78;;;20.85;42.89
26563;BME280;14217;50.986;5.826;2023-05-01T07:29:54;100834.00;;;20.89;42.78
26563;BME280;14217;50.986;5.826;2023-05-01T07:34:57;100830.56;;;20.87;42.52
26563;BME280;14217;50.986;5.826;2023-05-01T07:39:59;100833.22;;;20.87;42.48
26563;BME280;14217;50.986;5.826;2023-05-01T07:45:02;100829.91;;;20.83;42.70
26563;BME280;14217;50.986;5.826;2023-05-01T07:50:04;100828.59;;;20.90;42.39
26563;BME280;14217;50.986;5.826;2023-05-01T07:55:10;100829.63;;;20.88;42.65
26563;BME280;14217;50.986;5.826;2023-05-01T08:00:12;100831.19;;;20.92;44.44
26563;BME280;14217;50.986;5.826;2023-05-01T08:05:15;100829.38;;;20.92;45.14
26563;BME280;14217;50.986;5.826;2023-05-01T08:10:17;100832.31;;;20.88;45.33
26563;BME280;14217;50.986;5.826;2023-05-01T08:15:19;100839.19;;;20.92;45.32
26563;BME280;14217;50.986;5.826;2023-05-01T08:20:22;100836.34;;;20.95;45.13
26563;BME280;14217;50.986;5.826;2023-05-01T08:25:24;100831.13;;;20.94;44.98
26563;BME280;14217;50.986;5.826;2023-05-01T08:30:26;100839.09;;;20.94;45.08
26563;BME280;14217;50.986;5.826;2023-05-01T08:35:28;100831.00;;;20.95;44.83
26563;BME280;14217;50.986;5.826;2023-05-01T08:40:33;100830.78;;;21.00;44.34
26563;BME280;14217;50.986;5.826;2023-05-01T08:45:37;100826.44;;;20.97;44.60
26563;BME280;14217;50.986;5.826;2023-05-01T08:50:39;100826.44;;;20.97;44.53
26563;BME280;14217;50.986;5.826;2023-05-01T08:55:46;100833.06;;;21.06;44.55
26563;BME280;14217;50.986;5.826;2023-05-01T09:00:49;100834.81;;;21.07;44.08
26563;BME280;14217;50.986;5.826;2023-05-01T09:05:52;100829.16;;;21.13;43.05
26563;BME280;14217;50.986;5.826;2023-05-01T09:10:56;100827.59;;;21.09;43.14
26563;BME280;14217;50.986;5.826;2023-05-01T09:16:00;100832.66;;;21.14;42.52
26563;BME280;14217;50.986;5.826;2023-05-01T09:21:02;100828.38;;;21.11;42.58
26563;BME280;14217;50.986;5.826;2023-05-01T09:26:08;100831.81;;;21.13;42.26
26563;BME280;14217;50.986;5.826;2023-05-01T09:36:24;100833.50;;;21.14;42.20
26563;BME280;14217;50.986;5.826;2023-05-01T09:41:27;100829.16;;;21.13;42.07
26563;BME280;14217;50.986;5.826;2023-05-01T09:46:40;100836.03;;;21.17;41.97
26563;BME280;14217;50.986;5.826;2023-05-01T09:51:42;100835.31;;;21.14;42.02
26563;BME280;14217;50.986;5.826;2023-05-01T09:56:46;100836.34;;;21.11;41.73
26563;BME280;14217;50.986;5.826;2023-05-01T10:01:48;100830.59;;;21.19;41.61
26563;BME280;14217;50.986;5.826;2023-05-01T10:06:51;100833.44;;;21.16;41.89
26563;BME280;14217;50.986;5.826;2023-05-01T10:11:54;100838.75;;;21.16;41.62
26563;BME280;14217;50.986;5.826;2023-05-01T10:16:58;100838.69;;;21.17;41.69
26563;BME280;14217;50.986;5.826;2023-05-01T10:22:03;100825.38;;;21.17;41.31
26563;BME280;14217;50.986;5.826;2023-05-01T10:27:06;100832.50;;;21.17;41.29
26563;BME280;14217;50.986;5.826;2023-05-01T10:32:09;100834.13;;;21.19;41.45
26563;BME280;14217;50.986;5.826;2023-05-01T10:37:57;100821.06;;;21.15;41.53
26563;BME280;14217;50.986;5.826;2023-05-01T10:43:27;100821.84;;;21.17;41.28
26563;BME280;14217;50.986;5.826;2023-05-01T10:53:40;100822.50;;;21.20;41.40
26563;BME280;14217;50.986;5.826;2023-05-01T11:03:47;100820.03;;;21.17;41.37
26563;BME280;14217;50.986;5.826;2023-05-01T11:08:49;100812.63;;;21.22;40.98
26563;BME280;14217;50.986;5.826;2023-05-01T11:19:00;100800.84;;;21.26;40.92
26563;BME280;14217;50.986;5.826;2023-05-01T11:24:06;100804.56;;;21.24;41.17
26563;BME280;14217;50.986;5.826;2023-05-01T11:29:09;100793.63;;;21.28;40.97
26563;BME280;14217;50.986;5.826;2023-05-01T11:34:12;100797.06;;;21.30;40.81
26563;BME280;14217;50.986;5.826;2023-05-01T11:39:14;100785.47;;;21.31;40.98
26563;BME280;14217;50.986;5.826;2023-05-01T11:44:18;100777.72;;;21.27;40.90
26563;BME280;14217;50.986;5.826;2023-05-01T11:49:28;100779.47;;;21.28;40.72
26563;BME280;14217;50.986;5.826;2023-05-01T11:54:30;100779.63;;;21.25;40.92
26563;BME280;14217;50.986;5.826;2023-05-01T11:59:32;100784.09;;;21.24;40.72
26563;BME280;14217;50.986;5.826;2023-05-01T12:04:35;100832.41;;;21.18;40.95
26563;BME280;14217;50.986;5.826;2023-05-01T12:09:37;100811.09;;;21.18;41.20
26563;BME280;14217;50.986;5.826;2023-05-01T12:14:40;100791.66;;;21.16;41.21
26563;BME280;14217;50.986;5.826;2023-05-01T12:19:47;100794.44;;;21.15;41.82
26563;BME280;14217;50.986;5.826;2023-05-01T12:24:50;100803.44;;;21.12;42.08
26563;BME280;14217;50.986;5.826;2023-05-01T12:29:53;100807.06;;;21.11;42.93
26563;BME280;14217;50.986;5.826;2023-05-01T12:34:56;100833.00;;;21.07;43.63
26563;BME280;14217;50.986;5.826;2023-05-01T12:39:58;100830.19;;;21.10;44.21
26563;BME280;14217;50.986;5.826;2023-05-01T12:45:00;100834.47;;;21.13;43.79
26563;BME280;14217;50.986;5.826;2023-05-01T12:50:03;100850.72;;;21.08;44.23
26563;BME280;14217;50.986;5.826;2023-05-01T12:55:06;100860.34;;;21.11;43.96
26563;BME280;14217;50.986;5.826;2023-05-01T13:00:10;100866.84;;;21.05;44.03
26563;BME280;14217;50.986;5.826;2023-05-01T13:05:13;100857.31;;;21.01;44.05
26563;BME280;14217;50.986;5.826;2023-05-01T13:10:28;100859.19;;;20.99;43.73
26563;BME280;14217;50.986;5.826;2023-05-01T13:15:31;100861.53;;;21.05;43.52
26563;BME280;14217;50.986;5.826;2023-05-01T13:20:33;100851.50;;;21.10;43.73
26563;BME280;14217;50.986;5.826;2023-05-01T13:25:37;100846.31;;;21.07;43.82
26563;BME280;14217;50.986;5.826;2023-05-01T13:30:39;100843.50;;;21.10;43.70
26563;BME280;14217;50.986;5.826;2023-05-01T13:35:42;100840.91;;;21.09;44.00
26563;BME280;14217;50.986;5.826;2023-05-01T13:40:44;100836.50;;;21.08;43.78
26563;BME280;14217;50.986;5.826;2023-05-01T13:45:46;100836.19;;;21.14;43.88
26563;BME280;14217;50.986;5.826;2023-05-01T13:50:48;100834.63;;;21.10;43.67
26563;BME280;14217;50.986;5.826;2023-05-01T13:55:50;100832.50;;;21.17;43.92
26563;BME280;14217;50.986;5.826;2023-05-01T14:00:52;100828.28;;;21.13;43.96
26563;BME280;14217;50.986;5.826;2023-05-01T14:05:54;100825.44;;;21.16;43.92
26563;BME280;14217;50.986;5.826;2023-05-01T14:10:57;100835.41;;;21.12;44.10
26563;BME280;14217;50.986;5.826;2023-05-01T14:15:59;100833.44;;;21.16;44.50
26563;BME280;14217;50.986;5.826;2023-05-01T14:21:02;100831.63;;;21.00;45.23
26563;BME280;14217;50.986;5.826;2023-05-01T14:26:05;100831.53;;;21.02;44.81
26563;BME280;14217;50.986;5.826;2023-05-01T14:31:22;100820.47;;;20.94;44.60
26563;BME280;14217;50.986;5.826;2023-05-01T14:36:26;100823.78;;;20.97;45.26
26563;BME280;14217;50.986;5.826;2023-05-01T14:41:29;100830.00;;;20.98;44.75
26563;BME280;14217;50.986;5.826;2023-05-01T14:46:34;100826.56;;;20.96;45.07
26563;BME280;14217;50.986;5.826;2023-05-01T14:51:39;100843.22;;;20.99;44.49
26563;BME280;14217;50.986;5.826;2023-05-01T14:56:42;100853.88;;;20.99;44.54
26563;BME280;14217;50.986;5.826;2023-05-01T15:01:44;100859.50;;;21.10;46.02
26563;BME280;14217;50.986;5.826;2023-05-01T15:06:47;100871.59;;;21.16;46.28
26563;BME280;14217;50.986;5.826;2023-05-01T15:11:49;100869.97;;;21.14;45.39
26563;BME280;14217;50.986;5.826;2023-05-01T15:16:51;100864.63;;;21.14;44.93
26563;BME280;14217;50.986;5.826;2023-05-01T15:21:54;100866.59;;;21.10;45.03
26563;BME280;14217;50.986;5.826;2023-05-01T15:26:56;100860.25;;;21.13;45.53
26563;BME280;14217;50.986;5.826;2023-05-01T15:31:58;100863.44;;;21.19;45.47
26563;BME280;14217;50.986;5.826;2023-05-01T15:37:12;100866.00;;;21.21;45.31
26563;BME280;14217;50.986;5.826;2023-05-01T15:42:14;100867.88;;;21.19;45.30
26563;BME280;14217;50.986;5.826;2023-05-01T15:47:16;100874.00;;;21.21;45.25
26563;BME280;14217;50.986;5.826;2023-05-01T15:52:19;100875.88;;;21.19;45.27
26563;BME280;14217;50.986;5.826;2023-05-01T15:57:21;100877.63;;;21.20;45.30
26563;BME280;14217;50.986;5.826;2023-05-01T16:02:23;100888.28;;;21.20;45.35
26563;BME280;14217;50.986;5.826;2023-05-01T16:07:28;100889.75;;;21.25;45.74
26563;BME280;14217;50.986;5.826;2023-05-01T16:12:30;100895.16;;;21.24;46.83
26563;BME280;14217;50.986;5.826;2023-05-01T16:17:41;100899.13;;;21.17;46.63
26563;BME280;14217;50.986;5.826;2023-05-01T16:22:44;100905.13;;;21.20;46.46
26563;BME280;14217;50.986;5.826;2023-05-01T16:27:46;100908.88;;;21.16;46.27
26563;BME280;14217;50.986;5.826;2023-05-01T16:32:48;100908.13;;;21.14;45.76
26563;BME280;14217;50.986;5.826;2023-05-01T16:37:51;100914.47;;;21.11;45.66
26563;BME280;14217;50.986;5.826;2023-05-01T16:42:53;100913.88;;;21.22;45.51
26563;BME280;14217;50.986;5.826;2023-05-01T16:47:56;100921.88;;;21.22;46.24
26563;BME280;14217;50.986;5.826;2023-05-01T16:52:58;100927.53;;;21.16;46.13
26563;BME280;14217;50.986;5.826;2023-05-01T16:58:00;100930.31;;;21.15;45.72
26563;BME280;14217;50.986;5.826;2023-05-01T17:03:02;100923.25;;;21.14;45.82
26563;BME280;14217;50.986;5.826;2023-05-01T17:08:05;100930.38;;;21.13;45.16
26563;BME280;14217;50.986;5.826;2023-05-01T17:13:07;100939.16;;;21.15;45.26
26563;BME280;14217;50.986;5.826;2023-05-01T17:18:09;100954.38;;;21.13;45.15
26563;BME280;14217;50.986;5.826;2023-05-01T17:23:12;100957.81;;;21.15;45.28
26563;BME280;14217;50.986;5.826;2023-05-01T17:28:14;100966.84;;;21.13;44.91
26563;BME280;14217;50.986;5.826;2023-05-01T17:33:17;100964.06;;;21.14;45.12
26563;BME280;14217;50.986;5.826;2023-05-01T17:38:19;100973.38;;;21.23;44.93
26563;BME280;14217;50.986;5.826;2023-05-01T17:43:21;100973.53;;;21.20;46.51
26563;BME280;14217;50.986;5.826;2023-05-01T17:48:24;100979.41;;;21.26;46.30
26563;BME280;14217;50.986;5.826;2023-05-01T17:53:26;100978.81;;;21.21;46.34
26563;BME280;14217;50.986;5.826;2023-05-01T17:58:28;100982.13;;;21.25;46.56
26563;BME280;14217;50.986;5.826;2023-05-01T18:03:30;101008.56;;;21.29;46.38
26563;BME280;14217;50.986;5.826;2023-05-01T18:08:36;101014.91;;;21.27;46.46
26563;BME280;14217;50.986;5.826;2023-05-01T18:13:38;101027.75;;;21.19;46.56
26563;BME280;14217;50.986;5.826;2023-05-01T18:18:40;101028.78;;;21.16;46.73
26563;BME280;14217;50.986;5.826;2023-05-01T18:23:42;101046.28;;;21.22;46.25
26563;BME280;14217;50.986;5.826;2023-05-01T18:28:47;101036.00;;;21.14;46.71
26563;BME280;14217;50.986;5.826;2023-05-01T18:33:49;101030.69;;;21.14;46.46
26563;BME280;14217;50.986;5.826;2023-05-01T18:38:51;101030.53;;;21.17;46.27
26563;BME280;14217;50.986;5.826;2023-05-01T18:43:54;101036.66;;;21.19;46.16
26563;BME280;14217;50.986;5.826;2023-05-01T18:48:58;101052.63;;;21.19;45.99
26563;BME280;14217;50.986;5.826;2023-05-01T18:54:00;101069.47;;;21.20;45.71
26563;BME280;14217;50.986;5.826;2023-05-01T18:59:05;101070.41;;;21.19;45.67
26563;BME280;14217;50.986;5.826;2023-05-01T19:04:07;101080.31;;;21.17;45.63
26563;BME280;14217;50.986;5.826;2023-05-01T19:09:09;101083.91;;;21.16;45.68
26563;BME280;14217;50.986;5.826;2023-05-01T19:14:11;101084.69;;;21.18;45.25
26563;BME280;14217;50.986;5.826;2023-05-01T19:19:13;101088.31;;;21.17;45.36
26563;BME280;14217;50.986;5.826;2023-05-01T19:24:15;101094.63;;;21.14;45.29
26563;BME280;14217;50.986;5.826;2023-05-01T19:29:18;101093.00;;;21.11;45.35
26563;BME280;14217;50.986;5.826;2023-05-01T19:34:20;101099.88;;;21.16;45.15
26563;BME280;14217;50.986;5.826;2023-05-01T19:39:22;101106.25;;;21.13;45.01
26563;BME280;14217;50.986;5.826;2023-05-01T19:44:24;101114.31;;;21.11;45.10
26563;BME280;14217;50.986;5.826;2023-05-01T19:49:27;101120.47;;;21.12;44.89
26563;BME280;14217;50.986;5.826;2023-05-01T19:54:29;101124.81;;;21.15;44.85
26563;BME280;14217;50.986;5.826;2023-05-01T19:59:31;101132.88;;;21.13;44.70
26563;BME280;14217;50.986;5.826;2023-05-01T20:04:33;101128.94;;;21.20;44.89
26563;BME280;14217;50.986;5.826;2023-05-01T20:09:36;101134.34;;;21.19;46.27
26563;BME280;14217;50.986;5.826;2023-05-01T20:14:38;101146.81;;;21.18;46.40
26563;BME280;14217;50.986;5.826;2023-05-01T20:19:40;101149.59;;;21.17;46.23
26563;BME280;14217;50.986;5.826;2023-05-01T20:24:42;101157.47;;;21.18;46.26
26563;BME280;14217;50.986;5.826;2023-05-01T20:29:44;101163.59;;;21.20;45.95
26563;BME280;14217;50.986;5.826;2023-05-01T20:34:46;101161.00;;;21.19;45.92
26563;BME280;14217;50.986;5.826;2023-05-01T20:39:49;101171.34;;;21.25;46.25
26563;BME280;14217;50.986;5.826;2023-05-01T20:44:51;101186.78;;;21.18;46.25
26563;BME280;14217;50.986;5.826;2023-05-01T20:49:54;101180.69;;;21.16;46.55
26563;BME280;14217;50.986;5.826;2023-05-01T20:54:57;101185.69;;;21.22;46.37
26563;BME280;14217;50.986;5.826;2023-05-01T21:00:01;101198.09;;;21.23;46.41
26563;BME280;14217;50.986;5.826;2023-05-01T21:05:05;101201.84;;;21.19;46.65
26563;BME280;14217;50.986;5.826;2023-05-01T21:10:08;101203.63;;;21.19;46.29
26563;BME280;14217;50.986;5.826;2023-05-01T21:15:11;101215.19;;;21.19;46.15
26563;BME280;14217;50.986;5.826;2023-05-01T21:20:15;101213.38;;;21.20;46.14
26563;BME280;14217;50.986;5.826;2023-05-01T21:25:21;101217.91;;;21.18;45.68
26563;BME280;14217;50.986;5.826;2023-05-01T21:30:32;101223.31;;;21.16;45.68
26563;BME280;14217;50.986;5.826;2023-05-01T21:35:34;101229.59;;;21.15;45.72
26563;BME280;14217;50.986;5.826;2023-05-01T21:40:39;101226.94;;;21.15;45.39
26563;BME280;14217;50.986;5.826;2023-05-01T21:45:42;101233.97;;;21.16;45.46
26563;BME280;14217;50.986;5.826;2023-05-01T21:50:47;101228.81;;;21.13;45.36
26563;BME280;14217;50.986;5.826;2023-05-01T21:55:50;101228.81;;;21.13;45.38
26563;BME280;14217;50.986;5.826;2023-05-01T22:00:52;101248.38;;;21.12;45.25
26563;BME280;14217;50.986;5.826;2023-05-01T22:05:54;101250.91;;;21.15;45.01
26563;BME280;14217;50.986;5.826;2023-05-01T22:10:56;101263.44;;;21.13;44.92
26563;BME280;14217;50.986;5.826;2023-05-01T22:15:59;101267.81;;;21.14;44.89
26563;BME280;14217;50.986;5.826;2023-05-01T22:21:01;101276.72;;;21.15;44.56
26563;BME280;14217;50.986;5.826;2023-05-01T22:26:04;101274.97;;;21.14;44.72
26563;BME280;14217;50.986;5.826;2023-05-01T22:31:06;101282.97;;;21.14;44.47
26563;BME280;14217;50.986;5.826;2023-05-01T22:36:08;101279.44;;;21.13;44.80
26563;BME280;14217;50.986;5.826;2023-05-01T22:41:10;101286.41;;;21.16;44.68
26563;BME280;14217;50.986;5.826;2023-05-01T22:46:12;101290.03;;;21.15;44.29
26563;BME280;14217;50.986;5.826;2023-05-01T22:51:15;101291.81;;;21.14;44.47
26563;BME280;14217;50.986;5.826;2023-05-01T22:56:17;101289.16;;;21.14;44.57
26563;BME280;14217;50.986;5.826;2023-05-01T23:01:19;101289.16;;;21.14;44.22
26563;BME280;14217;50.986;5.826;2023-05-01T23:06:21;101289.16;;;21.14;44.38
26563;BME280;14217;50.986;5.826;2023-05-01T23:11:29;101304.22;;;21.15;44.36
26563;BME280;14217;50.986;5.826;2023-05-01T23:16:37;101297.13;;;21.14;44.23
26563;BME280;14217;50.986;5.826;2023-05-01T23:21:42;101307.97;;;21.11;44.37
26563;BME280;14217;50.986;5.826;2023-05-01T23:26:44;101321.13;;;21.14;44.14
26563;BME280;14217;50.986;5.826;2023-05-01T23:31:46;101326.44;;;21.14;44.28
26563;BME280;14217;50.986;5.826;2023-05-01T23:36:49;101333.34;;;21.18;44.12
26563;BME280;14217;50.986;5.826;2023-05-01T23:41:51;101327.34;;;21.15;44.03
26563;BME280;14217;50.986;5.826;2023-05-01T23:46:54;101333.66;;;21.12;43.93
26563;BME280;14217;50.986;5.826;2023-05-01T23:51:56;101340.72;;;21.13;44.19
26563;BME280;14217;50.986;5.826;2023-05-01T23:56:59;101340.78;;;21.11;43.89
